sensor_id;sensor_type;location;lat;lon;timestamp;P1;durP1;ratioP1;P2;durP2;ratioP2
80272;SDS011;69574;45.328;9.598;2023-08-17T00:00:46;8.60;;;5.43;;
80272;SDS011;69574;45.328;9.598;2023-08-17T00:03:11;7.10;;;5.50;;
80272;SDS011;69574;45.328;9.598;2023-08-17T00:05:37;7.18;;;5.47;;
80272;SDS011;69574;45.328;9.598;2023-08-17T00:08:03;7.22;;;5.70;;
80272;SDS011;69574;45.328;9.598;2023-08-17T00:10:28;10.00;;;6.72;;
80272;SDS011;69574;45.328;9.598;2023-08-17T00:12:55;10.90;;;8.18;;
80272;SDS011;69574;45.328;9.598;2023-08-17T00:15:21;10.75;;;8.27;;
80272;SDS011;69574;45.328;9.598;2023-08-17T00:17:47;10.35;;;7.35;;
80272;SDS011;69574;45.328;9.598;2023-08-17T00:20:12;12.38;;;8.70;;
80272;SDS011;69574;45.328;9.598;2023-08-17T00:22:38;10.23;;;8.48;;
80272;SDS011;69574;45.328;9.598;2023-08-17T00:25:04;9.45;;;8.23;;
80272;SDS011;69574;45.328;9.598;2023-08-17T00:27:32;12.43;;;8.13;;
80272;SDS011;69574;45.328;9.598;2023-08-17T00:30:00;13.15;;;9.85;;
80272;SDS011;69574;45.328;9.598;2023-08-17T00:32:25;14.25;;;9.65;;
80272;SDS011;69574;45.328;9.598;2023-08-17T00:34:51;11.68;;;9.38;;
80272;SDS011;69574;45.328;9.598;2023-08-17T00:37:16;10.35;;;8.98;;
80272;SDS011;69574;45.328;9.598;2023-08-17T00:39:42;10.20;;;8.98;;
80272;SDS011;69574;45.328;9.598;2023-08-17T00:42:08;11.20;;;9.00;;
80272;SDS011;69574;45.328;9.598;2023-08-17T00:44:33;10.68;;;9.00;;
80272;SDS011;69574;45.328;9.598;2023-08-17T00:47:00;11.70;;;9.65;;
80272;SDS011;69574;45.328;9.598;2023-08-17T00:49:26;13.77;;;6.30;;
80272;SDS011;69574;45.328;9.598;2023-08-17T00:51:52;8.88;;;5.55;;
80272;SDS011;69574;45.328;9.598;2023-08-17T00:54:17;10.57;;;6.32;;
80272;SDS011;69574;45.328;9.598;2023-08-17T00:56:45;9.13;;;6.32;;
80272;SDS011;69574;45.328;9.598;2023-08-17T00:59:11;10.55;;;8.48;;
80272;SDS011;69574;45.328;9.598;2023-08-17T01:01:36;9.35;;;7.72;;
80272;SDS011;69574;45.328;9.598;2023-08-17T01:04:04;8.75;;;6.90;;
80272;SDS011;69574;45.328;9.598;2023-08-17T01:06:29;8.93;;;7.35;;
80272;SDS011;69574;45.328;9.598;2023-08-17T01:08:55;8.77;;;7.18;;
80272;SDS011;69574;45.328;9.598;2023-08-17T01:11:23;10.43;;;7.70;;
80272;SDS011;69574;45.328;9.598;2023-08-17T01:13:52;8.63;;;7.28;;
80272;SDS011;69574;45.328;9.598;2023-08-17T01:16:21;9.82;;;7.97;;
80272;SDS011;69574;45.328;9.598;2023-08-17T01:18:49;8.52;;;7.32;;
80272;SDS011;69574;45.328;9.598;2023-08-17T01:21:17;10.48;;;7.15;;
80272;SDS011;69574;45.328;9.598;2023-08-17T01:23:45;8.98;;;6.75;;
80272;SDS011;69574;45.328;9.598;2023-08-17T01:26:11;8.52;;;6.72;;
80272;SDS011;69574;45.328;9.598;2023-08-17T01:28:40;7.07;;;6.28;;
80272;SDS011;69574;45.328;9.598;2023-08-17T01:31:08;7.93;;;6.03;;
80272;SDS011;69574;45.328;9.598;2023-08-17T01:33:37;7.25;;;6.10;;
80272;SDS011;69574;45.328;9.598;2023-08-17T01:36:05;8.23;;;6.05;;
80272;SDS011;69574;45.328;9.598;2023-08-17T01:38:33;7.78;;;6.50;;
80272;SDS011;69574;45.328;9.598;2023-08-17T01:41:01;10.30;;;6.45;;
80272;SDS011;69574;45.328;9.598;2023-08-17T01:43:27;6.75;;;5.63;;
80272;SDS011;69574;45.328;9.598;2023-08-17T01:45:53;7.50;;;6.03;;
80272;SDS011;69574;45.328;9.598;2023-08-17T01:48:19;7.47;;;5.78;;
80272;SDS011;69574;45.328;9.598;2023-08-17T01:50:45;7.72;;;5.82;;
80272;SDS011;69574;45.328;9.598;2023-08-17T01:53:10;7.22;;;5.68;;
80272;SDS011;69574;45.328;9.598;2023-08-17T01:55:37;6.20;;;5.40;;
80272;SDS011;69574;45.328;9.598;2023-08-17T01:58:06;7.50;;;5.18;;
80272;SDS011;69574;45.328;9.598;2023-08-17T02:00:31;9.80;;;5.60;;
80272;SDS011;69574;45.328;9.598;2023-08-17T02:02:57;6.63;;;5.53;;
80272;SDS011;69574;45.328;9.598;2023-08-17T02:05:23;7.90;;;5.63;;
80272;SDS011;69574;45.328;9.598;2023-08-17T02:07:48;8.45;;;5.80;;
80272;SDS011;69574;45.328;9.598;2023-08-17T02:10:14;9.10;;;6.38;;
80272;SDS011;69574;45.328;9.598;2023-08-17T02:12:40;8.32;;;6.03;;
80272;SDS011;69574;45.328;9.598;2023-08-17T02:15:07;7.07;;;5.93;;
80272;SDS011;69574;45.328;9.598;2023-08-17T02:17:33;7.90;;;6.03;;
80272;SDS011;69574;45.328;9.598;2023-08-17T02:19:59;9.35;;;6.18;;
80272;SDS011;69574;45.328;9.598;2023-08-17T02:22:24;7.65;;;6.18;;
80272;SDS011;69574;45.328;9.598;2023-08-17T02:24:50;9.27;;;5.50;;
80272;SDS011;69574;45.328;9.598;2023-08-17T02:27:16;9.85;;;6.28;;
80272;SDS011;69574;45.328;9.598;2023-08-17T02:29:41;8.80;;;5.28;;
80272;SDS011;69574;45.328;9.598;2023-08-17T02:32:09;8.68;;;5.72;;
80272;SDS011;69574;45.328;9.598;2023-08-17T02:34:34;7.70;;;5.53;;
80272;SDS011;69574;45.328;9.598;2023-08-17T02:37:00;9.48;;;5.72;;
80272;SDS011;69574;45.328;9.598;2023-08-17T02:39:26;12.80;;;5.78;;
80272;SDS011;69574;45.328;9.598;2023-08-17T02:41:51;6.85;;;5.45;;
80272;SDS011;69574;45.328;9.598;2023-08-17T02:44:17;6.88;;;5.85;;
80272;SDS011;69574;45.328;9.598;2023-08-17T02:46:43;9.10;;;6.03;;
80272;SDS011;69574;45.328;9.598;2023-08-17T02:49:10;9.55;;;6.32;;
80272;SDS011;69574;45.328;9.598;2023-08-17T02:51:35;9.40;;;6.20;;
80272;SDS011;69574;45.328;9.598;2023-08-17T02:54:01;8.10;;;5.80;;
80272;SDS011;69574;45.328;9.598;2023-08-17T02:56:27;7.65;;;5.82;;
80272;SDS011;69574;45.328;9.598;2023-08-17T02:58:53;6.60;;;5.07;;
80272;SDS011;69574;45.328;9.598;2023-08-17T03:01:18;6.78;;;4.78;;
80272;SDS011;69574;45.328;9.598;2023-08-17T03:03:44;8.60;;;5.10;;
80272;SDS011;69574;45.328;9.598;2023-08-17T03:06:11;7.53;;;4.88;;
80272;SDS011;69574;45.328;9.598;2023-08-17T03:08:36;6.55;;;4.53;;
80272;SDS011;69574;45.328;9.598;2023-08-17T03:11:02;7.63;;;4.55;;
80272;SDS011;69574;45.328;9.598;2023-08-17T03:13:28;14.68;;;5.03;;
80272;SDS011;69574;45.328;9.598;2023-08-17T03:15:54;6.90;;;5.13;;
80272;SDS011;69574;45.328;9.598;2023-08-17T03:18:19;7.93;;;5.13;;
80272;SDS011;69574;45.328;9.598;2023-08-17T03:20:45;7.05;;;5.50;;
80272;SDS011;69574;45.328;9.598;2023-08-17T03:23:12;10.27;;;6.55;;
80272;SDS011;69574;45.328;9.598;2023-08-17T03:25:38;9.38;;;6.47;;
80272;SDS011;69574;45.328;9.598;2023-08-17T03:28:04;11.48;;;6.45;;
80272;SDS011;69574;45.328;9.598;2023-08-17T03:30:30;8.65;;;6.50;;
80272;SDS011;69574;45.328;9.598;2023-08-17T03:32:55;8.52;;;6.82;;
80272;SDS011;69574;45.328;9.598;2023-08-17T03:35:21;7.82;;;6.22;;
80272;SDS011;69574;45.328;9.598;2023-08-17T03:37:47;8.57;;;6.47;;
80272;SDS011;69574;45.328;9.598;2023-08-17T03:40:14;9.55;;;6.75;;
80272;SDS011;69574;45.328;9.598;2023-08-17T03:42:40;8.50;;;6.68;;
80272;SDS011;69574;45.328;9.598;2023-08-17T03:45:07;7.80;;;6.93;;
80272;SDS011;69574;45.328;9.598;2023-08-17T03:47:32;8.23;;;6.50;;
80272;SDS011;69574;45.328;9.598;2023-08-17T03:49:58;11.32;;;7.80;;
80272;SDS011;69574;45.328;9.598;2023-08-17T03:52:24;9.95;;;7.82;;
80272;SDS011;69574;45.328;9.598;2023-08-17T03:54:49;12.32;;;8.50;;
80272;SDS011;69574;45.328;9.598;2023-08-17T03:57:16;10.13;;;8.43;;
80272;SDS011;69574;45.328;9.598;2023-08-17T03:59:42;10.82;;;8.43;;
80272;SDS011;69574;45.328;9.598;2023-08-17T04:02:08;8.93;;;7.57;;
80272;SDS011;69574;45.328;9.598;2023-08-17T04:04:33;9.82;;;7.43;;
80272;SDS011;69574;45.328;9.598;2023-08-17T04:06:59;11.52;;;9.02;;
80272;SDS011;69574;45.328;9.598;2023-08-17T04:09:25;10.52;;;8.25;;
80272;SDS011;69574;45.328;9.598;2023-08-17T04:11:50;8.65;;;7.38;;
80272;SDS011;69574;45.328;9.598;2023-08-17T04:14:17;10.27;;;8.38;;
80272;SDS011;69574;45.328;9.598;2023-08-17T04:16:43;11.80;;;8.90;;
80272;SDS011;69574;45.328;9.598;2023-08-17T04:19:09;10.50;;;8.25;;
80272;SDS011;69574;45.328;9.598;2023-08-17T04:21:34;11.25;;;9.80;;
80272;SDS011;69574;45.328;9.598;2023-08-17T04:24:00;10.60;;;9.57;;
80272;SDS011;69574;45.328;9.598;2023-08-17T04:26:26;11.75;;;10.18;;
80272;SDS011;69574;45.328;9.598;2023-08-17T04:28:51;11.00;;;9.85;;
80272;SDS011;69574;45.328;9.598;2023-08-17T04:31:18;11.95;;;9.75;;
80272;SDS011;69574;45.328;9.598;2023-08-17T04:33:44;12.43;;;10.57;;
80272;SDS011;69574;45.328;9.598;2023-08-17T04:36:10;13.43;;;10.98;;
80272;SDS011;69574;45.328;9.598;2023-08-17T04:38:35;13.05;;;9.88;;
80272;SDS011;69574;45.328;9.598;2023-08-17T04:41:01;14.77;;;10.00;;
80272;SDS011;69574;45.328;9.598;2023-08-17T04:43:26;15.10;;;10.35;;
80272;SDS011;69574;45.328;9.598;2023-08-17T04:45:52;14.38;;;9.88;;
80272;SDS011;69574;45.328;9.598;2023-08-17T04:48:19;12.13;;;9.65;;
80272;SDS011;69574;45.328;9.598;2023-08-17T04:50:45;18.75;;;10.57;;
80272;SDS011;69574;45.328;9.598;2023-08-17T04:53:11;14.77;;;9.90;;
80272;SDS011;69574;45.328;9.598;2023-08-17T04:55:37;15.00;;;10.90;;
80272;SDS011;69574;45.328;9.598;2023-08-17T04:58:02;16.55;;;11.20;;
80272;SDS011;69574;45.328;9.598;2023-08-17T05:00:28;15.40;;;10.60;;
80272;SDS011;69574;45.328;9.598;2023-08-17T05:02:54;15.15;;;10.95;;
80272;SDS011;69574;45.328;9.598;2023-08-17T05:05:21;13.25;;;10.10;;
80272;SDS011;69574;45.328;9.598;2023-08-17T05:07:47;11.88;;;9.65;;
80272;SDS011;69574;45.328;9.598;2023-08-17T05:10:13;11.23;;;9.25;;
80272;SDS011;69574;45.328;9.598;2023-08-17T05:12:38;11.68;;;9.48;;
80272;SDS011;69574;45.328;9.598;2023-08-17T05:15:04;12.38;;;8.98;;
80272;SDS011;69574;45.328;9.598;2023-08-17T05:17:30;13.15;;;9.13;;
80272;SDS011;69574;45.328;9.598;2023-08-17T05:19:55;10.32;;;9.15;;
80272;SDS011;69574;45.328;9.598;2023-08-17T05:22:23;10.70;;;9.35;;
80272;SDS011;69574;45.328;9.598;2023-08-17T05:24:48;13.02;;;9.20;;
80272;SDS011;69574;45.328;9.598;2023-08-17T05:27:14;12.45;;;9.93;;
80272;SDS011;69574;45.328;9.598;2023-08-17T05:29:39;12.85;;;10.13;;
80272;SDS011;69574;45.328;9.598;2023-08-17T05:32:05;19.65;;;9.90;;
80272;SDS011;69574;45.328;9.598;2023-08-17T05:34:31;12.23;;;8.82;;
80272;SDS011;69574;45.328;9.598;2023-08-17T05:36:57;11.65;;;9.82;;
80272;SDS011;69574;45.328;9.598;2023-08-17T05:39:24;10.65;;;9.23;;
80272;SDS011;69574;45.328;9.598;2023-08-17T05:41:49;11.55;;;9.35;;
80272;SDS011;69574;45.328;9.598;2023-08-17T05:44:15;11.85;;;10.30;;
80272;SDS011;69574;45.328;9.598;2023-08-17T05:46:41;11.23;;;9.40;;
80272;SDS011;69574;45.328;9.598;2023-08-17T05:49:07;12.05;;;8.95;;
80272;SDS011;69574;45.328;9.598;2023-08-17T05:51:32;11.32;;;8.38;;
80272;SDS011;69574;45.328;9.598;2023-08-17T05:53:58;13.05;;;8.80;;
80272;SDS011;69574;45.328;9.598;2023-08-17T05:56:25;9.43;;;8.02;;
80272;SDS011;69574;45.328;9.598;2023-08-17T05:58:51;22.05;;;9.35;;
80272;SDS011;69574;45.328;9.598;2023-08-17T06:01:16;10.23;;;8.13;;
80272;SDS011;69574;45.328;9.598;2023-08-17T06:03:42;11.50;;;8.65;;
80272;SDS011;69574;45.328;9.598;2023-08-17T06:06:08;11.45;;;9.13;;
80272;SDS011;69574;45.328;9.598;2023-08-17T06:08:34;10.65;;;8.63;;
80272;SDS011;69574;45.328;9.598;2023-08-17T06:11:00;9.73;;;7.80;;
80272;SDS011;69574;45.328;9.598;2023-08-17T06:13:27;11.35;;;7.85;;
80272;SDS011;69574;45.328;9.598;2023-08-17T06:15:53;10.43;;;8.15;;
80272;SDS011;69574;45.328;9.598;2023-08-17T06:18:18;10.02;;;8.02;;
80272;SDS011;69574;45.328;9.598;2023-08-17T06:20:45;11.20;;;8.07;;
80272;SDS011;69574;45.328;9.598;2023-08-17T06:23:12;20.33;;;8.48;;
80272;SDS011;69574;45.328;9.598;2023-08-17T06:25:38;17.20;;;8.73;;
80272;SDS011;69574;45.328;9.598;2023-08-17T06:28:05;9.50;;;8.30;;
80272;SDS011;69574;45.328;9.598;2023-08-17T06:30:32;11.15;;;8.43;;
80272;SDS011;69574;45.328;9.598;2023-08-17T06:32:58;14.13;;;9.73;;
80272;SDS011;69574;45.328;9.598;2023-08-17T06:35:24;10.68;;;8.55;;
80272;SDS011;69574;45.328;9.598;2023-08-17T06:37:50;11.93;;;8.40;;
80272;SDS011;69574;45.328;9.598;2023-08-17T06:40:16;11.00;;;9.05;;
80272;SDS011;69574;45.328;9.598;2023-08-17T06:42:42;11.93;;;8.68;;
80272;SDS011;69574;45.328;9.598;2023-08-17T06:45:08;10.88;;;8.27;;
80272;SDS011;69574;45.328;9.598;2023-08-17T06:47:35;10.73;;;8.13;;
80272;SDS011;69574;45.328;9.598;2023-08-17T06:50:01;11.95;;;8.50;;
80272;SDS011;69574;45.328;9.598;2023-08-17T06:52:26;11.30;;;8.93;;
80272;SDS011;69574;45.328;9.598;2023-08-17T06:54:52;15.60;;;8.13;;
80272;SDS011;69574;45.328;9.598;2023-08-17T06:57:18;10.50;;;8.80;;
80272;SDS011;69574;45.328;9.598;2023-08-17T06:59:44;10.48;;;8.35;;
80272;SDS011;69574;45.328;9.598;2023-08-17T07:02:11;11.70;;;8.45;;
80272;SDS011;69574;45.328;9.598;2023-08-17T07:04:38;9.32;;;8.00;;
80272;SDS011;69574;45.328;9.598;2023-08-17T07:07:04;16.42;;;8.40;;
80272;SDS011;69574;45.328;9.598;2023-08-17T07:09:29;11.45;;;7.35;;
80272;SDS011;69574;45.328;9.598;2023-08-17T07:11:55;11.48;;;8.65;;
80272;SDS011;69574;45.328;9.598;2023-08-17T07:14:21;11.88;;;8.05;;
80272;SDS011;69574;45.328;9.598;2023-08-17T07:16:46;9.35;;;8.43;;
80272;SDS011;69574;45.328;9.598;2023-08-17T07:19:12;10.30;;;8.52;;
80272;SDS011;69574;45.328;9.598;2023-08-17T07:24:12;10.67;;;7.70;;
80272;SDS011;69574;45.328;9.598;2023-08-17T07:26:38;12.55;;;7.82;;
80272;SDS011;69574;45.328;9.598;2023-08-17T07:29:04;8.43;;;7.53;;
80272;SDS011;69574;45.328;9.598;2023-08-17T07:31:30;12.90;;;8.02;;
80272;SDS011;69574;45.328;9.598;2023-08-17T07:33:56;9.85;;;8.05;;
80272;SDS011;69574;45.328;9.598;2023-08-17T07:36:22;12.13;;;8.48;;
80272;SDS011;69574;45.328;9.598;2023-08-17T07:38:47;10.07;;;7.82;;
80272;SDS011;69574;45.328;9.598;2023-08-17T07:41:14;10.95;;;8.65;;
80272;SDS011;69574;45.328;9.598;2023-08-17T07:43:40;13.43;;;8.73;;
80272;SDS011;69574;45.328;9.598;2023-08-17T07:46:06;34.75;;;9.50;;
80272;SDS011;69574;45.328;9.598;2023-08-17T07:48:31;19.73;;;7.82;;
80272;SDS011;69574;45.328;9.598;2023-08-17T07:50:58;11.73;;;8.10;;
80272;SDS011;69574;45.328;9.598;2023-08-17T07:53:24;16.52;;;8.18;;
80272;SDS011;69574;45.328;9.598;2023-08-17T07:55:50;31.73;;;8.70;;
80272;SDS011;69574;45.328;9.598;2023-08-17T07:58:17;12.82;;;8.07;;
80272;SDS011;69574;45.328;9.598;2023-08-17T08:00:43;11.98;;;8.15;;
80272;SDS011;69574;45.328;9.598;2023-08-17T08:03:08;15.65;;;8.45;;
80272;SDS011;69574;45.328;9.598;2023-08-17T08:05:34;12.00;;;8.35;;
80272;SDS011;69574;45.328;9.598;2023-08-17T08:08:00;11.90;;;9.52;;
80272;SDS011;69574;45.328;9.598;2023-08-17T08:10:26;10.02;;;8.85;;
80272;SDS011;69574;45.328;9.598;2023-08-17T08:12:52;77.97;;;13.88;;
80272;SDS011;69574;45.328;9.598;2023-08-17T08:15:19;15.82;;;9.15;;
80272;SDS011;69574;45.328;9.598;2023-08-17T08:17:45;12.32;;;8.98;;
80272;SDS011;69574;45.328;9.598;2023-08-17T08:20:10;27.52;;;10.93;;
80272;SDS011;69574;45.328;9.598;2023-08-17T08:22:36;12.20;;;9.30;;
80272;SDS011;69574;45.328;9.598;2023-08-17T08:25:02;15.32;;;8.68;;
80272;SDS011;69574;45.328;9.598;2023-08-17T08:27:27;25.25;;;10.93;;
80272;SDS011;69574;45.328;9.598;2023-08-17T08:29:53;14.75;;;9.63;;
80272;SDS011;69574;45.328;9.598;2023-08-17T08:32:20;19.35;;;9.77;;
80272;SDS011;69574;45.328;9.598;2023-08-17T08:34:46;12.45;;;8.93;;
80272;SDS011;69574;45.328;9.598;2023-08-17T08:37:11;17.27;;;9.68;;
80272;SDS011;69574;45.328;9.598;2023-08-17T08:39:47;18.42;;;9.95;;
80272;SDS011;69574;45.328;9.598;2023-08-17T08:42:14;17.38;;;10.38;;
80272;SDS011;69574;45.328;9.598;2023-08-17T08:44:39;24.98;;;10.27;;
80272;SDS011;69574;45.328;9.598;2023-08-17T08:47:05;113.78;;;17.20;;
80272;SDS011;69574;45.328;9.598;2023-08-17T08:49:32;20.50;;;10.77;;
80272;SDS011;69574;45.328;9.598;2023-08-17T08:52:00;13.90;;;8.85;;
80272;SDS011;69574;45.328;9.598;2023-08-17T08:54:27;10.88;;;8.48;;
80272;SDS011;69574;45.328;9.598;2023-08-17T08:56:54;10.60;;;9.50;;
80272;SDS011;69574;45.328;9.598;2023-08-17T08:59:20;12.63;;;9.13;;
80272;SDS011;69574;45.328;9.598;2023-08-17T09:01:47;30.40;;;10.30;;
80272;SDS011;69574;45.328;9.598;2023-08-17T09:04:12;21.50;;;10.13;;
80272;SDS011;69574;45.328;9.598;2023-08-17T09:06:39;14.48;;;9.73;;
80272;SDS011;69574;45.328;9.598;2023-08-17T09:09:06;14.52;;;9.15;;
80272;SDS011;69574;45.328;9.598;2023-08-17T09:11:33;12.65;;;9.75;;
80272;SDS011;69574;45.328;9.598;2023-08-17T09:13:58;13.02;;;10.00;;
80272;SDS011;69574;45.328;9.598;2023-08-17T09:16:24;18.35;;;10.65;;
80272;SDS011;69574;45.328;9.598;2023-08-17T09:18:50;13.38;;;9.90;;
80272;SDS011;69574;45.328;9.598;2023-08-17T09:21:20;9.82;;;8.82;;
80272;SDS011;69574;45.328;9.598;2023-08-17T09:23:51;13.35;;;10.35;;
80272;SDS011;69574;45.328;9.598;2023-08-17T09:26:19;11.70;;;9.45;;
80272;SDS011;69574;45.328;9.598;2023-08-17T09:28:44;11.27;;;9.20;;
80272;SDS011;69574;45.328;9.598;2023-08-17T09:31:10;11.45;;;10.10;;
80272;SDS011;69574;45.328;9.598;2023-08-17T09:36:02;10.43;;;9.07;;
80272;SDS011;69574;45.328;9.598;2023-08-17T09:40:55;11.03;;;9.10;;
80272;SDS011;69574;45.328;9.598;2023-08-17T09:43:20;11.55;;;10.38;;
80272;SDS011;69574;45.328;9.598;2023-08-17T09:48:14;21.17;;;18.42;;
80272;SDS011;69574;45.328;9.598;2023-08-17T09:50:40;16.17;;;12.95;;
80272;SDS011;69574;45.328;9.598;2023-08-17T09:55:31;14.80;;;10.20;;
80272;SDS011;69574;45.328;9.598;2023-08-17T09:58:00;13.43;;;12.02;;
80272;SDS011;69574;45.328;9.598;2023-08-17T10:00:26;14.63;;;11.25;;
80272;SDS011;69574;45.328;9.598;2023-08-17T10:02:52;13.38;;;10.75;;
80272;SDS011;69574;45.328;9.598;2023-08-17T10:07:43;10.97;;;8.63;;
80272;SDS011;69574;45.328;9.598;2023-08-17T10:10:11;11.93;;;10.13;;
80272;SDS011;69574;45.328;9.598;2023-08-17T10:12:38;10.90;;;9.85;;
80272;SDS011;69574;45.328;9.598;2023-08-17T10:15:09;10.77;;;9.23;;
80272;SDS011;69574;45.328;9.598;2023-08-17T10:17:38;11.55;;;9.60;;
80272;SDS011;69574;45.328;9.598;2023-08-17T10:20:05;9.82;;;8.88;;
80272;SDS011;69574;45.328;9.598;2023-08-17T10:22:33;18.75;;;10.05;;
80272;SDS011;69574;45.328;9.598;2023-08-17T10:24:59;13.25;;;9.75;;
80272;SDS011;69574;45.328;9.598;2023-08-17T10:27:26;12.48;;;9.82;;
80272;SDS011;69574;45.328;9.598;2023-08-17T10:29:51;9.73;;;8.80;;
80272;SDS011;69574;45.328;9.598;2023-08-17T10:32:20;11.38;;;9.07;;
80272;SDS011;69574;45.328;9.598;2023-08-17T10:34:46;31.73;;;10.05;;
80272;SDS011;69574;45.328;9.598;2023-08-17T10:39:38;19.40;;;9.50;;
80272;SDS011;69574;45.328;9.598;2023-08-17T10:42:09;12.00;;;8.63;;
80272;SDS011;69574;45.328;9.598;2023-08-17T10:47:03;9.60;;;8.03;;
80272;SDS011;69574;45.328;9.598;2023-08-17T10:49:44;9.32;;;8.32;;
80272;SDS011;69574;45.328;9.598;2023-08-17T10:52:10;9.68;;;8.65;;
80272;SDS011;69574;45.328;9.598;2023-08-17T10:54:37;12.13;;;9.05;;
80272;SDS011;69574;45.328;9.598;2023-08-17T10:59:43;9.13;;;8.15;;
80272;SDS011;69574;45.328;9.598;2023-08-17T11:04:34;15.37;;;9.23;;
80272;SDS011;69574;45.328;9.598;2023-08-17T11:09:27;11.10;;;8.87;;
80272;SDS011;69574;45.328;9.598;2023-08-17T11:11:53;10.02;;;9.02;;
80272;SDS011;69574;45.328;9.598;2023-08-17T11:14:19;10.05;;;8.75;;
80272;SDS011;69574;45.328;9.598;2023-08-17T11:19:10;10.23;;;9.20;;
80272;SDS011;69574;45.328;9.598;2023-08-17T11:24:01;9.83;;;8.83;;
80272;SDS011;69574;45.328;9.598;2023-08-17T11:28:53;9.43;;;8.37;;
80272;SDS011;69574;45.328;9.598;2023-08-17T11:31:19;8.85;;;7.95;;
80272;SDS011;69574;45.328;9.598;2023-08-17T11:36:12;10.75;;;9.60;;
80272;SDS011;69574;45.328;9.598;2023-08-17T11:38:38;9.60;;;8.35;;
80272;SDS011;69574;45.328;9.598;2023-08-17T11:41:04;12.40;;;9.52;;
80272;SDS011;69574;45.328;9.598;2023-08-17T11:43:31;17.13;;;9.23;;
80272;SDS011;69574;45.328;9.598;2023-08-17T11:45:59;10.90;;;8.98;;
80272;SDS011;69574;45.328;9.598;2023-08-17T11:48:25;10.73;;;9.50;;
80272;SDS011;69574;45.328;9.598;2023-08-17T11:50:51;10.55;;;9.52;;
80272;SDS011;69574;45.328;9.598;2023-08-17T11:53:17;10.68;;;8.35;;
80272;SDS011;69574;45.328;9.598;2023-08-17T11:55:43;10.63;;;9.48;;
80272;SDS011;69574;45.328;9.598;2023-08-17T11:58:08;10.27;;;9.27;;
80272;SDS011;69574;45.328;9.598;2023-08-17T12:03:04;12.07;;;8.93;;
80272;SDS011;69574;45.328;9.598;2023-08-17T12:05:30;9.48;;;8.23;;
80272;SDS011;69574;45.328;9.598;2023-08-17T12:07:57;15.30;;;8.75;;
80272;SDS011;69574;45.328;9.598;2023-08-17T12:10:22;15.45;;;9.15;;
80272;SDS011;69574;45.328;9.598;2023-08-17T12:15:13;10.20;;;8.00;;
80272;SDS011;69574;45.328;9.598;2023-08-17T12:17:41;13.63;;;8.60;;
80272;SDS011;69574;45.328;9.598;2023-08-17T12:20:14;11.10;;;7.93;;
80272;SDS011;69574;45.328;9.598;2023-08-17T12:22:40;9.80;;;7.25;;
80272;SDS011;69574;45.328;9.598;2023-08-17T12:25:06;10.02;;;8.57;;
80272;SDS011;69574;45.328;9.598;2023-08-17T12:27:33;8.98;;;8.05;;
80272;SDS011;69574;45.328;9.598;2023-08-17T12:29:58;9.68;;;8.02;;
80272;SDS011;69574;45.328;9.598;2023-08-17T12:32:24;12.85;;;7.95;;
80272;SDS011;69574;45.328;9.598;2023-08-17T12:34:50;9.40;;;7.93;;
80272;SDS011;69574;45.328;9.598;2023-08-17T12:37:19;11.07;;;7.80;;
80272;SDS011;69574;45.328;9.598;2023-08-17T12:39:48;29.77;;;8.75;;
80272;SDS011;69574;45.328;9.598;2023-08-17T12:42:14;8.90;;;7.22;;
80272;SDS011;69574;45.328;9.598;2023-08-17T12:47:05;9.97;;;7.17;;
80272;SDS011;69574;45.328;9.598;2023-08-17T12:51:56;7.30;;;6.60;;
80272;SDS011;69574;45.328;9.598;2023-08-17T12:54:23;8.73;;;7.28;;
80272;SDS011;69574;45.328;9.598;2023-08-17T12:56:49;8.07;;;6.90;;
80272;SDS011;69574;45.328;9.598;2023-08-17T12:59:15;8.30;;;7.45;;
80272;SDS011;69574;45.328;9.598;2023-08-17T13:01:41;12.85;;;7.55;;
80272;SDS011;69574;45.328;9.598;2023-08-17T13:04:07;8.45;;;7.50;;
80272;SDS011;69574;45.328;9.598;2023-08-17T13:06:33;8.25;;;7.18;;
80272;SDS011;69574;45.328;9.598;2023-08-17T13:08:58;7.68;;;6.93;;
80272;SDS011;69574;45.328;9.598;2023-08-17T13:11:25;8.52;;;6.45;;
80272;SDS011;69574;45.328;9.598;2023-08-17T13:13:51;8.07;;;7.28;;
80272;SDS011;69574;45.328;9.598;2023-08-17T13:16:17;7.22;;;6.43;;
80272;SDS011;69574;45.328;9.598;2023-08-17T13:18:42;7.35;;;6.45;;
80272;SDS011;69574;45.328;9.598;2023-08-17T13:21:08;6.82;;;6.18;;
80272;SDS011;69574;45.328;9.598;2023-08-17T13:23:34;7.55;;;6.60;;
80272;SDS011;69574;45.328;9.598;2023-08-17T13:25:59;8.10;;;6.35;;
80272;SDS011;69574;45.328;9.598;2023-08-17T13:28:26;10.75;;;6.72;;
80272;SDS011;69574;45.328;9.598;2023-08-17T13:30:52;11.65;;;6.90;;
80272;SDS011;69574;45.328;9.598;2023-08-17T13:33:18;6.97;;;6.25;;
80272;SDS011;69574;45.328;9.598;2023-08-17T13:35:43;7.10;;;6.30;;
80272;SDS011;69574;45.328;9.598;2023-08-17T13:38:09;8.13;;;6.45;;
80272;SDS011;69574;45.328;9.598;2023-08-17T13:40:35;7.18;;;6.43;;
80272;SDS011;69574;45.328;9.598;2023-08-17T13:43:04;7.80;;;6.38;;
80272;SDS011;69574;45.328;9.598;2023-08-17T13:45:35;7.95;;;7.00;;
80272;SDS011;69574;45.328;9.598;2023-08-17T13:48:00;6.93;;;6.22;;
80272;SDS011;69574;45.328;9.598;2023-08-17T13:50:26;6.85;;;6.15;;
80272;SDS011;69574;45.328;9.598;2023-08-17T13:52:53;7.22;;;6.28;;
80272;SDS011;69574;45.328;9.598;2023-08-17T13:55:21;6.43;;;5.80;;
80272;SDS011;69574;45.328;9.598;2023-08-17T13:57:46;7.32;;;6.55;;
80272;SDS011;69574;45.328;9.598;2023-08-17T14:02:39;8.53;;;6.53;;
80272;SDS011;69574;45.328;9.598;2023-08-17T14:05:05;7.57;;;6.75;;
80272;SDS011;69574;45.328;9.598;2023-08-17T14:07:30;7.53;;;6.35;;
80272;SDS011;69574;45.328;9.598;2023-08-17T14:09:56;7.63;;;6.70;;
80272;SDS011;69574;45.328;9.598;2023-08-17T14:12:22;7.53;;;6.38;;
80272;SDS011;69574;45.328;9.598;2023-08-17T14:14:47;7.22;;;6.20;;
80272;SDS011;69574;45.328;9.598;2023-08-17T14:19:39;7.40;;;6.60;;
80272;SDS011;69574;45.328;9.598;2023-08-17T14:22:05;8.05;;;6.38;;
80272;SDS011;69574;45.328;9.598;2023-08-17T14:24:31;9.35;;;6.40;;
80272;SDS011;69574;45.328;9.598;2023-08-17T14:26:56;6.70;;;5.88;;
80272;SDS011;69574;45.328;9.598;2023-08-17T14:29:23;6.82;;;5.97;;
80272;SDS011;69574;45.328;9.598;2023-08-17T14:31:48;6.82;;;6.13;;
80272;SDS011;69574;45.328;9.598;2023-08-17T14:34:14;18.25;;;6.78;;
80272;SDS011;69574;45.328;9.598;2023-08-17T14:36:42;9.30;;;6.28;;
80272;SDS011;69574;45.328;9.598;2023-08-17T14:39:07;9.52;;;6.45;;
80272;SDS011;69574;45.328;9.598;2023-08-17T14:41:33;8.90;;;5.78;;
80272;SDS011;69574;45.328;9.598;2023-08-17T14:43:59;6.82;;;5.50;;
80272;SDS011;69574;45.328;9.598;2023-08-17T14:48:49;6.70;;;5.30;;
80272;SDS011;69574;45.328;9.598;2023-08-17T14:51:15;8.73;;;5.25;;
80272;SDS011;69574;45.328;9.598;2023-08-17T14:56:07;7.57;;;5.03;;
80272;SDS011;69574;45.328;9.598;2023-08-17T14:58:33;7.50;;;4.82;;
80272;SDS011;69574;45.328;9.598;2023-08-17T15:00:58;7.07;;;4.53;;
80272;SDS011;69574;45.328;9.598;2023-08-17T15:05:49;8.90;;;4.60;;
80272;SDS011;69574;45.328;9.598;2023-08-17T15:10:41;7.35;;;4.60;;
80272;SDS011;69574;45.328;9.598;2023-08-17T15:15:34;8.13;;;4.97;;
80272;SDS011;69574;45.328;9.598;2023-08-17T15:17:59;6.35;;;4.45;;
80272;SDS011;69574;45.328;9.598;2023-08-17T15:22:50;9.68;;;5.05;;
80272;SDS011;69574;45.328;9.598;2023-08-17T15:27:41;9.83;;;4.60;;
80272;SDS011;69574;45.328;9.598;2023-08-17T15:32:33;7.93;;;4.60;;
80272;SDS011;69574;45.328;9.598;2023-08-17T15:34:59;6.70;;;4.20;;
80272;SDS011;69574;45.328;9.598;2023-08-17T15:39:50;9.07;;;5.13;;
80272;SDS011;69574;45.328;9.598;2023-08-17T15:44:41;9.33;;;5.20;;
80272;SDS011;69574;45.328;9.598;2023-08-17T15:49:33;9.73;;;5.27;;